Time;durP1;ratioP1;P1;durP2;ratioP2;P2;SDS_P1;SDS_P2;PMS_P1;PMS_P2;Temp;Humidity;BMP_temperature;BMP_pressure;BME280_temperature;BME280_humidity;BME280_pressure;Samples;Min_cycle;Max_cycle;Signal;HPM_P1;HPM_P2
2022/07/29 00:01:33;;;;;;;0.88;0.88;;;24.80;99.90;;;;;;5067534;28;20219;-64
2022/07/29 00:04:00;;;;;;;0.90;0.90;;;24.80;99.90;;;;;;5071202;28;20213;-62
2022/07/29 00:06:27;;;;;;;0.90;0.90;;;24.80;99.90;;;;;;5072454;28;20199;-62
2022/07/29 00:08:54;;;;;;;0.82;0.80;;;24.80;99.90;;;;;;5069219;28;20252;-64
2022/07/29 00:11:22;;;;;;;0.90;0.90;;;24.80;99.90;;;;;;5071731;28;20781;-62
2022/07/29 00:13:49;;;;;;;0.82;0.82;;;24.80;99.90;;;;;;5071285;28;20206;-61
2022/07/29 00:16:16;;;;;;;0.80;0.80;;;24.70;99.90;;;;;;5067604;28;20227;-61
2022/07/29 00:18:43;;;;;;;0.90;0.90;;;24.70;99.90;;;;;;5071093;28;20203;-62
2022/07/29 00:21:10;;;;;;;0.90;0.90;;;24.70;99.90;;;;;;5067213;28;20230;-62
2022/07/29 00:23:36;;;;;;;0.80;0.80;;;24.60;99.90;;;;;;5071075;28;20238;-62
2022/07/29 00:26:03;;;;;;;0.88;0.88;;;24.60;99.90;;;;;;5070851;28;20642;-62
2022/07/29 00:28:32;;;;;;;0.90;0.90;;;24.50;99.90;;;;;;5070729;28;20195;-62
2022/07/29 00:30:58;;;;;;;1.00;0.90;;;24.50;99.90;;;;;;5070500;28;20251;-62
2022/07/29 00:33:25;;;;;;;0.82;0.82;;;24.50;99.90;;;;;;5070273;28;20214;-62
2022/07/29 00:35:51;;;;;;;0.80;0.80;;;24.50;99.90;;;;;;5068817;28;20223;-63
2022/07/29 00:38:20;;;;;;;0.80;0.80;;;24.50;99.90;;;;;;5070174;28;20261;-63
2022/07/29 00:40:48;;;;;;;0.80;0.80;;;24.50;99.90;;;;;;5067432;28;20219;-62
2022/07/29 00:43:15;;;;;;;0.90;0.90;;;24.40;99.90;;;;;;5066485;28;20235;-62
2022/07/29 00:45:44;;;;;;;0.80;0.80;;;24.40;99.90;;;;;;5055168;28;20198;-61
2022/07/29 00:48:11;;;;;;;0.82;0.82;;;24.30;99.90;;;;;;5060563;28;20230;-62
2022/07/29 00:50:38;;;;;;;0.70;0.70;;;24.30;99.90;;;;;;5062442;28;20274;-62
2022/07/29 00:53:07;;;;;;;1.23;1.13;;;24.20;99.90;;;;;;5058600;28;20211;-62
2022/07/29 00:55:34;;;;;;;1.05;0.95;;;24.20;99.90;;;;;;5063368;28;20220;-63
2022/07/29 00:58:01;;;;;;;0.80;0.80;;;24.20;99.90;;;;;;5059777;28;20590;-62
2022/07/29 01:00:29;;;;;;;1.00;1.00;;;24.10;99.90;;;;;;5063111;28;20244;-62
2022/07/29 01:02:57;;;;;;;0.82;0.82;;;24.10;99.90;;;;;;5062987;28;20216;-62
2022/07/29 01:05:28;;;;;;;0.88;0.88;;;24.00;99.90;;;;;;5063816;28;20294;-62
2022/07/29 01:07:56;;;;;;;0.90;0.90;;;24.00;99.90;;;;;;5063913;28;20282;-62
2022/07/29 01:10:24;;;;;;;0.90;0.90;;;24.00;99.90;;;;;;5065238;28;20679;-62
2022/07/29 01:12:53;;;;;;;0.80;0.80;;;23.90;99.90;;;;;;5097096;22;20227;-62
2022/07/29 01:15:20;;;;;;;0.90;0.90;;;23.80;99.90;;;;;;5083032;28;20233;-62
2022/07/29 01:17:52;;;;;;;0.88;0.88;;;23.70;99.90;;;;;;5082107;28;20282;-63
2022/07/29 01:20:27;;;;;;;0.90;0.90;;;23.60;99.90;;;;;;5093560;28;20668;-63
2022/07/29 01:23:43;;;;;;;0.90;0.90;;;23.60;99.90;;;;;;5095868;28;20228;-63
2022/07/29 01:26:33;;;;;;;0.90;0.90;;;23.50;99.90;;;;;;5096936;28;20212;-63
2022/07/29 01:29:09;;;;;;;0.90;0.90;;;23.50;99.90;;;;;;5097603;28;20210;-64
2022/07/29 01:31:44;;;;;;;0.90;0.90;;;23.30;99.90;;;;;;5103475;28;20230;-63
2022/07/29 01:34:22;;;;;;;0.90;0.90;;;23.30;99.90;;;;;;5104993;28;20194;-62
2022/07/29 01:36:52;;;;;;;0.88;0.88;;;23.20;99.90;;;;;;5095787;28;20210;-63
2022/07/29 01:39:24;;;;;;;0.80;0.80;;;23.20;99.90;;;;;;5096165;28;20203;-63
2022/07/29 01:41:59;;;;;;;0.85;0.85;;;23.10;99.90;;;;;;5095188;28;20233;-62
2022/07/29 01:44:33;;;;;;;0.88;0.88;;;23.10;99.90;;;;;;5095258;28;20205;-63
2022/07/29 01:47:13;;;;;;;1.00;1.00;;;23.00;99.90;;;;;;5095076;28;20268;-63
2022/07/29 01:49:45;;;;;;;0.80;0.80;;;22.90;99.90;;;;;;5094951;28;20206;-62
2022/07/29 01:52:19;;;;;;;0.80;0.80;;;22.90;99.90;;;;;;5095021;28;20230;-63
2022/07/29 01:54:51;;;;;;;0.90;0.90;;;22.80;99.90;;;;;;5094786;28;20715;-64
2022/07/29 01:57:20;;;;;;;0.90;0.90;;;22.80;99.90;;;;;;5094885;28;20214;-64
2022/07/29 01:59:51;;;;;;;0.90;0.90;;;22.70;99.90;;;;;;5094863;28;20331;-62
2022/07/29 02:02:19;;;;;;;1.00;1.00;;;22.70;99.90;;;;;;5094894;28;20650;-62
2022/07/29 02:04:48;;;;;;;1.00;1.00;;;22.60;99.90;;;;;;5094593;28;20283;-63
2022/07/29 02:07:20;;;;;;;0.90;0.90;;;22.60;99.90;;;;;;5094460;28;20207;-64
2022/07/29 02:09:48;;;;;;;0.80;0.80;;;22.60;99.90;;;;;;5094978;28;20569;-62
2022/07/29 02:12:17;;;;;;;1.00;1.00;;;22.50;99.90;;;;;;5094671;28;20321;-63
2022/07/29 02:14:47;;;;;;;0.85;0.85;;;22.50;99.90;;;;;;5095144;28;20896;-64
2022/07/29 02:17:23;;;;;;;1.00;1.00;;;22.40;99.90;;;;;;5095185;28;20219;-64
2022/07/29 02:19:51;;;;;;;0.80;0.80;;;22.40;99.90;;;;;;5094496;28;20274;-62
2022/07/29 02:22:20;;;;;;;0.90;0.90;;;22.30;99.90;;;;;;5097161;28;20222;-64
2022/07/29 02:24:48;;;;;;;1.00;1.00;;;22.30;99.90;;;;;;5109745;28;20233;-64
2022/07/29 02:27:16;;;;;;;0.90;0.90;;;22.20;99.90;;;;;;5108696;28;20282;-64
2022/07/29 02:29:44;;;;;;;0.90;0.90;;;22.10;99.90;;;;;;5102644;28;20270;-63
2022/07/29 02:32:14;;;;;;;0.80;0.80;;;22.00;99.90;;;;;;5098169;28;20265;-65
2022/07/29 02:34:43;;;;;;;1.10;1.10;;;22.00;99.90;;;;;;5096620;28;20212;-63
2022/07/29 02:37:12;;;;;;;0.90;0.90;;;22.00;99.90;;;;;;5097332;28;20222;-63
2022/07/29 02:39:41;;;;;;;0.88;0.88;;;21.90;99.90;;;;;;5096388;28;20297;-63
2022/07/29 02:42:13;;;;;;;0.77;0.77;;;21.80;99.90;;;;;;5095741;28;20787;-64
2022/07/29 02:44:40;;;;;;;1.00;1.00;;;21.80;99.90;;;;;;5096177;28;20218;-64
2022/07/29 02:47:14;;;;;;;0.90;0.90;;;21.70;99.90;;;;;;5096243;28;20297;-62
2022/07/29 02:49:51;;;;;;;0.98;0.98;;;21.70;99.90;;;;;;5101690;28;20190;-63
2022/07/29 02:52:23;;;;;;;0.88;0.88;;;21.70;99.90;;;;;;5108435;28;20230;-63
2022/07/29 02:54:55;;;;;;;1.00;1.00;;;21.70;99.90;;;;;;5110577;28;20644;-65
2022/07/29 02:57:29;;;;;;;0.88;0.88;;;21.70;99.90;;;;;;5104393;28;20302;-64
2022/07/29 02:59:59;;;;;;;0.80;0.80;;;21.60;99.90;;;;;;5099172;28;20297;-64
2022/07/29 03:02:27;;;;;;;0.90;0.90;;;21.60;99.90;;;;;;5096177;28;20646;-64
2022/07/29 03:04:57;;;;;;;1.02;1.02;;;21.60;99.90;;;;;;5095390;28;20668;-64
2022/07/29 03:07:25;;;;;;;0.93;0.93;;;21.70;99.90;;;;;;5095804;28;20660;-63
2022/07/29 03:09:53;;;;;;;1.50;1.10;;;21.70;99.90;;;;;;5109813;28;20202;-64
2022/07/29 03:12:20;;;;;;;1.17;1.08;;;21.60;99.90;;;;;;5109356;28;20317;-63
2022/07/29 03:14:49;;;;;;;0.82;0.82;;;21.50;99.90;;;;;;5108848;28;20207;-63
2022/07/29 03:17:16;;;;;;;0.90;0.90;;;21.40;99.90;;;;;;5098045;28;20222;-63
2022/07/29 03:19:43;;;;;;;0.90;0.90;;;21.40;99.90;;;;;;5096276;28;20209;-63
2022/07/29 03:22:12;;;;;;;0.90;0.90;;;21.30;99.90;;;;;;5099703;28;20298;-62
2022/07/29 03:24:39;;;;;;;0.90;0.90;;;21.30;99.90;;;;;;5106503;28;20262;-64
2022/07/29 03:27:06;;;;;;;1.00;1.00;;;21.30;99.90;;;;;;5108426;28;20265;-64
2022/07/29 03:29:33;;;;;;;1.00;1.00;;;21.20;99.90;;;;;;5097873;28;20209;-63
2022/07/29 03:32:00;;;;;;;1.00;1.00;;;21.20;99.90;;;;;;5093560;28;20222;-63
2022/07/29 03:34:27;;;;;;;1.00;1.00;;;21.20;99.90;;;;;;5093503;28;20388;-63
2022/07/29 03:36:54;;;;;;;1.25;1.20;;;21.10;99.90;;;;;;5093821;28;20230;-63
2022/07/29 03:39:26;;;;;;;0.95;0.95;;;21.10;99.90;;;;;;5093575;28;20297;-63
2022/07/29 03:41:56;;;;;;;0.98;0.98;;;21.10;99.90;;;;;;5093707;28;20234;-63
2022/07/29 03:44:24;;;;;;;1.10;1.10;;;21.10;99.90;;;;;;5094553;28;20274;-64
2022/07/29 03:46:55;;;;;;;1.00;1.00;;;21.00;99.90;;;;;;5094841;28;20201;-64
2022/07/29 03:49:24;;;;;;;1.15;1.15;;;21.00;99.90;;;;;;5094503;28;20615;-63
2022/07/29 03:51:51;;;;;;;0.80;0.80;;;21.00;99.90;;;;;;5093405;28;20230;-62
2022/07/29 03:54:18;;;;;;;0.90;0.90;;;21.20;99.90;;;;;;5093243;28;20234;-63
2022/07/29 03:56:48;;;;;;;0.90;0.90;;;21.30;99.90;;;;;;5093266;28;20310;-63
2022/07/29 03:59:19;;;;;;;0.90;0.90;;;21.40;99.90;;;;;;5093635;28;20672;-63
2022/07/29 04:01:46;;;;;;;1.05;0.95;;;21.50;99.90;;;;;;5092934;28;20313;-64
2022/07/29 04:04:13;;;;;;;1.00;1.00;;;21.50;99.90;;;;;;5093346;28;20209;-63
2022/07/29 04:06:41;;;;;;;1.05;1.02;;;21.60;99.90;;;;;;5093321;28;20201;-65
2022/07/29 04:09:08;;;;;;;1.25;1.25;;;21.60;99.90;;;;;;5093215;28;20226;-63
2022/07/29 04:11:37;;;;;;;1.02;1.02;;;21.40;99.90;;;;;;5094808;28;20321;-61
2022/07/29 04:14:06;;;;;;;1.00;1.00;;;21.50;99.90;;;;;;5095898;28;20607;-63
2022/07/29 04:16:33;;;;;;;1.10;1.10;;;21.40;99.90;;;;;;5095474;28;20253;-62
2022/07/29 04:19:01;;;;;;;1.00;1.00;;;21.40;99.90;;;;;;5095446;28;20210;-62
2022/07/29 04:21:27;;;;;;;1.02;1.00;;;21.40;99.90;;;;;;5094495;28;20256;-62
2022/07/29 04:23:54;;;;;;;0.90;0.90;;;21.30;99.90;;;;;;5093409;28;20238;-61
2022/07/29 04:26:22;;;;;;;1.10;1.10;;;21.30;99.90;;;;;;5092708;28;20287;-63
2022/07/29 04:28:48;;;;;;;1.20;1.20;;;21.20;99.90;;;;;;5097900;28;20206;-63
2022/07/29 04:31:17;;;;;;;0.90;0.90;;;21.10;99.90;;;;;;5099795;28;20273;-62
2022/07/29 04:33:43;;;;;;;1.08;1.08;;;21.20;99.90;;;;;;5099373;28;20216;-62
2022/07/29 04:36:11;;;;;;;1.00;1.00;;;21.20;99.90;;;;;;5098222;28;20228;-62
2022/07/29 04:38:39;;;;;;;1.00;1.00;;;21.20;99.90;;;;;;5097189;28;20206;-62
2022/07/29 04:41:06;;;;;;;1.20;1.20;;;21.20;99.90;;;;;;5085730;28;20216;-64
2022/07/29 04:43:33;;;;;;;1.25;1.10;;;21.30;99.90;;;;;;5075927;28;20229;-63
2022/07/29 04:46:00;;;;;;;1.00;1.00;;;21.40;99.90;;;;;;5075757;28;20208;-61
2022/07/29 04:48:28;;;;;;;0.98;0.98;;;21.60;99.90;;;;;;5076115;28;20199;-63
2022/07/29 04:50:56;;;;;;;1.10;1.10;;;21.60;99.90;;;;;;5075364;28;20688;-62
2022/07/29 04:53:23;;;;;;;1.15;1.15;;;21.70;99.90;;;;;;5076034;28;20231;-64
2022/07/29 04:55:49;;;;;;;1.00;1.00;;;21.70;99.90;;;;;;5076823;28;20196;-66
2022/07/29 04:58:16;;;;;;;1.45;1.13;;;21.60;99.90;;;;;;5076002;28;20316;-63
2022/07/29 05:00:43;;;;;;;1.10;1.10;;;21.60;99.90;;;;;;5075648;28;20205;-64
2022/07/29 05:03:10;;;;;;;1.00;1.00;;;21.60;99.90;;;;;;5075906;28;20262;-65
2022/07/29 05:05:39;;;;;;;1.00;1.00;;;21.70;99.90;;;;;;5075793;28;20222;-63
2022/07/29 05:08:06;;;;;;;1.00;1.00;;;21.60;99.90;;;;;;5076595;28;20215;-64
2022/07/29 05:10:35;;;;;;;1.25;1.25;;;21.60;99.90;;;;;;5075825;28;20294;-65
2022/07/29 05:13:02;;;;;;;1.30;1.30;;;21.60;99.90;;;;;;5077409;28;20712;-63
2022/07/29 05:15:29;;;;;;;1.20;1.20;;;21.50;99.90;;;;;;5077677;28;20215;-64
2022/07/29 05:17:56;;;;;;;1.23;1.10;;;21.50;99.90;;;;;;5076866;28;20305;-64
2022/07/29 05:20:26;;;;;;;1.10;1.10;;;21.60;99.90;;;;;;5075935;28;20210;-63
2022/07/29 05:22:54;;;;;;;1.00;1.00;;;21.70;99.90;;;;;;5077127;28;20223;-64
2022/07/29 05:25:21;;;;;;;1.00;1.00;;;21.70;99.90;;;;;;5078125;28;20226;-64
2022/07/29 05:27:48;;;;;;;1.20;1.10;;;21.80;99.90;;;;;;5076014;28;20282;-63
2022/07/29 05:30:15;;;;;;;1.00;1.00;;;21.80;99.90;;;;;;5075262;28;20306;-66
2022/07/29 05:32:42;;;;;;;0.90;0.90;;;21.80;99.90;;;;;;5074577;28;20664;-64
2022/07/29 05:35:09;;;;;;;1.27;1.27;;;21.80;99.90;;;;;;5075417;28;20219;-64
2022/07/29 05:37:36;;;;;;;1.10;1.10;;;21.80;99.90;;;;;;5073874;28;20669;-63
2022/07/29 05:40:06;;;;;;;1.05;1.05;;;21.80;99.90;;;;;;5075961;28;20297;-65
2022/07/29 05:42:33;;;;;;;1.15;1.15;;;21.80;99.90;;;;;;5074954;28;20241;-63
2022/07/29 05:45:00;;;;;;;1.00;1.00;;;21.80;99.90;;;;;;5074777;28;20253;-63
2022/07/29 05:47:27;;;;;;;1.10;1.00;;;21.90;99.90;;;;;;5075145;28;20196;-64
2022/07/29 05:49:54;;;;;;;0.90;0.90;;;21.90;99.90;;;;;;5075966;28;20217;-63
2022/07/29 05:52:21;;;;;;;1.15;1.15;;;21.90;99.90;;;;;;5075560;28;20246;-64
2022/07/29 05:54:48;;;;;;;1.10;1.10;;;22.10;99.90;;;;;;5075419;28;20298;-64
2022/07/29 05:57:21;;;;;;;1.17;1.17;;;22.20;99.90;;;;;;5087914;28;20292;-63
2022/07/29 05:59:48;;;;;;;1.05;1.05;;;22.40;99.90;;;;;;5091134;28;20286;-63
2022/07/29 06:02:15;;;;;;;0.98;0.98;;;22.40;99.90;;;;;;5074175;28;20306;-64
2022/07/29 06:04:42;;;;;;;1.08;1.08;;;22.50;99.90;;;;;;5075291;28;20246;-64
2022/07/29 06:07:09;;;;;;;1.40;1.30;;;22.70;99.90;;;;;;5074744;28;20191;-63
2022/07/29 06:09:36;;;;;;;0.90;0.90;;;22.90;99.90;;;;;;5072029;28;20290;-64
2022/07/29 06:12:03;;;;;;;0.90;0.90;;;23.10;99.90;;;;;;5073625;28;20231;-63
2022/07/29 06:14:32;;;;;;;1.20;1.20;;;23.20;99.90;;;;;;5075109;28;20222;-64
2022/07/29 06:16:59;;;;;;;1.00;1.00;;;23.20;99.90;;;;;;5076813;28;20219;-64
2022/07/29 06:19:26;;;;;;;1.17;1.17;;;23.20;99.90;;;;;;5076668;28;20230;-63
2022/07/29 06:21:53;;;;;;;1.27;1.20;;;23.30;99.90;;;;;;5076637;28;20227;-63
2022/07/29 06:24:20;;;;;;;1.35;1.30;;;23.50;99.90;;;;;;5076492;28;20199;-65
2022/07/29 06:26:48;;;;;;;1.10;1.10;;;23.70;99.90;;;;;;5076737;28;20227;-64
2022/07/29 06:29:15;;;;;;;1.40;1.30;;;23.80;99.90;;;;;;5068213;28;20846;-63
2022/07/29 06:31:43;;;;;;;1.30;1.30;;;23.90;99.90;;;;;;5075769;28;20219;-63
2022/07/29 06:34:10;;;;;;;1.35;1.10;;;24.00;99.90;;;;;;5072378;28;20718;-65
2022/07/29 06:36:38;;;;;;;1.08;1.08;;;24.10;99.90;;;;;;5073125;28;20207;-63
2022/07/29 06:39:06;;;;;;;1.17;1.17;;;23.90;99.90;;;;;;5070338;28;20268;-64
2022/07/29 06:41:33;;;;;;;1.60;1.20;;;23.90;99.90;;;;;;5073729;28;20567;-63
2022/07/29 06:44:00;;;;;;;1.20;1.20;;;24.20;99.90;;;;;;5074595;28;20204;-63
2022/07/29 06:46:28;;;;;;;1.10;1.10;;;24.30;99.90;;;;;;5072911;28;20211;-64
2022/07/29 06:48:56;;;;;;;1.35;1.20;;;24.30;99.90;;;;;;5074085;28;20423;-64
2022/07/29 06:51:23;;;;;;;1.10;1.10;;;24.30;99.90;;;;;;5072858;28;20273;-64
2022/07/29 06:53:51;;;;;;;1.33;1.17;;;24.20;99.90;;;;;;5072155;28;20286;-63
2022/07/29 06:56:17;;;;;;;1.33;1.05;;;24.30;99.90;;;;;;5072627;28;20275;-62
2022/07/29 06:58:44;;;;;;;1.10;1.05;;;24.40;99.90;;;;;;5073628;28;20223;-63
2022/07/29 07:01:11;;;;;;;1.13;1.10;;;24.50;99.90;;;;;;5070987;28;20282;-64
2022/07/29 07:03:38;;;;;;;1.20;1.10;;;24.50;99.90;;;;;;5073628;28;20607;-64
2022/07/29 07:06:06;;;;;;;1.20;1.20;;;24.60;99.90;;;;;;5073861;28;20280;-65
2022/07/29 07:08:33;;;;;;;1.10;1.10;;;24.60;99.90;;;;;;5075059;28;20255;-64
2022/07/29 07:11:00;;;;;;;1.00;1.00;;;24.70;99.90;;;;;;5083618;28;20223;-62
2022/07/29 07:13:27;;;;;;;1.35;1.25;;;24.70;99.90;;;;;;5081892;28;20218;-64
2022/07/29 07:15:54;;;;;;;1.15;1.10;;;24.90;99.90;;;;;;5075390;28;20203;-64
2022/07/29 07:18:21;;;;;;;1.20;1.20;;;25.00;99.90;;;;;;5072492;28;20685;-65
2022/07/29 07:20:48;;;;;;;1.40;1.00;;;25.00;99.90;;;;;;5073202;28;20213;-65
2022/07/29 07:23:16;;;;;;;1.40;1.30;;;25.00;99.90;;;;;;5072657;28;20219;-63
2022/07/29 07:25:43;;;;;;;1.20;1.10;;;25.00;99.90;;;;;;5072851;28;20286;-65
2022/07/29 07:28:10;;;;;;;1.10;1.10;;;25.00;99.90;;;;;;5072724;28;20291;-64
2022/07/29 07:30:37;;;;;;;1.08;1.08;;;25.00;99.90;;;;;;5072613;28;20291;-65
2022/07/29 07:33:04;;;;;;;1.27;1.20;;;25.00;99.90;;;;;;5072187;28;20242;-63
2022/07/29 07:35:31;;;;;;;1.98;1.33;;;25.00;99.90;;;;;;5072840;28;20735;-63
2022/07/29 07:37:59;;;;;;;1.48;1.00;;;25.00;99.90;;;;;;5069565;28;20712;-64
2022/07/29 07:40:27;;;;;;;1.15;1.15;;;25.00;99.90;;;;;;5073119;28;20211;-64
2022/07/29 07:42:54;;;;;;;1.25;1.23;;;25.00;99.90;;;;;;5072005;28;20314;-65
2022/07/29 07:45:21;;;;;;;1.00;1.00;;;25.00;99.90;;;;;;5072388;28;20202;-63
2022/07/29 07:47:48;;;;;;;1.17;1.17;;;25.00;99.90;;;;;;5072748;28;20187;-64
2022/07/29 07:50:17;;;;;;;2.05;1.45;;;25.00;99.90;;;;;;5072381;28;20205;-63
2022/07/29 07:52:49;;;;;;;1.20;1.20;;;25.00;99.90;;;;;;5072357;28;20268;-64
2022/07/29 07:55:16;;;;;;;1.20;1.20;;;25.10;99.90;;;;;;5070550;28;20195;-63
2022/07/29 07:57:44;;;;;;;1.25;1.13;;;25.10;99.90;;;;;;5073429;28;20700;-63
2022/07/29 08:00:13;;;;;;;0.98;0.98;;;25.20;99.90;;;;;;5072883;28;20222;-63
2022/07/29 08:02:40;;;;;;;1.00;1.00;;;25.40;99.90;;;;;;5072236;28;20697;-63
2022/07/29 08:05:08;;;;;;;1.10;1.10;;;25.70;99.90;;;;;;5072552;28;20359;-63
2022/07/29 08:07:35;;;;;;;1.10;1.00;;;25.90;99.90;;;;;;5070331;28;20192;-64
2022/07/29 08:10:03;;;;;;;1.33;1.20;;;25.80;99.90;;;;;;5076081;28;20199;-65
2022/07/29 08:12:30;;;;;;;1.30;1.20;;;26.00;99.90;;;;;;5077452;28;20233;-63
2022/07/29 08:14:58;;;;;;;1.17;1.10;;;26.00;99.90;;;;;;5071686;28;20258;-65
2022/07/29 08:17:26;;;;;;;1.23;1.23;;;26.10;99.90;;;;;;5068778;28;20760;-65
2022/07/29 08:19:53;;;;;;;1.10;1.10;;;26.40;99.90;;;;;;5072463;28;20249;-64
2022/07/29 08:22:20;;;;;;;1.45;1.25;;;26.50;99.90;;;;;;5071755;28;20309;-66
2022/07/29 08:24:52;;;;;;;1.00;1.00;;;26.50;99.90;;;;;;5072429;28;20213;-66
2022/07/29 08:27:20;;;;;;;1.20;1.10;;;26.50;99.90;;;;;;5072616;28;20215;-68
2022/07/29 08:29:47;;;;;;;3.33;1.20;;;26.50;99.90;;;;;;5072010;28;20223;-66
2022/07/29 08:32:15;;;;;;;1.30;1.30;;;26.60;99.90;;;;;;5075083;28;20287;-67
2022/07/29 08:34:42;;;;;;;1.00;1.00;;;26.80;99.90;;;;;;5077491;28;20270;-69
2022/07/29 08:37:09;;;;;;;1.20;1.20;;;27.00;99.90;;;;;;5075411;28;20360;-68
2022/07/29 08:39:35;;;;;;;1.20;1.10;;;26.70;99.90;;;;;;5078315;28;20298;-67
2022/07/29 08:42:02;;;;;;;1.73;1.20;;;26.60;99.90;;;;;;5075563;28;20732;-66
2022/07/29 08:44:30;;;;;;;1.20;1.20;;;26.40;99.90;;;;;;5072508;28;20248;-66
2022/07/29 08:46:57;;;;;;;1.23;1.13;;;26.20;99.90;;;;;;5072492;28;20231;-68
2022/07/29 08:49:25;;;;;;;1.30;1.20;;;26.20;99.90;;;;;;5071575;28;20662;-67
2022/07/29 08:51:53;;;;;;;1.08;1.08;;;26.30;99.90;;;;;;5074191;28;20219;-66
2022/07/29 08:54:22;;;;;;;1.17;1.17;;;26.70;99.90;;;;;;5072905;28;20204;-67
2022/07/29 08:56:50;;;;;;;1.30;1.20;;;27.00;99.90;;;;;;5074244;28;20318;-68
2022/07/29 08:59:20;;;;;;;1.10;1.10;;;27.20;99.90;;;;;;5071797;28;20241;-68
2022/07/29 09:01:48;;;;;;;3.38;1.30;;;27.50;99.90;;;;;;5072265;28;20230;-66
2022/07/29 09:04:17;;;;;;;1.13;1.05;;;27.50;99.90;;;;;;5070803;28;20207;-67
2022/07/29 09:06:48;;;;;;;1.30;1.00;;;27.50;99.90;;;;;;5068191;28;20214;-67
2022/07/29 09:09:16;;;;;;;1.58;1.13;;;27.40;99.90;;;;;;5077544;28;20537;-68
2022/07/29 09:11:43;;;;;;;1.20;1.15;;;27.40;99.90;;;;;;5080276;28;20290;-69
2022/07/29 09:14:13;;;;;;;0.90;0.90;;;27.20;99.90;;;;;;5081630;28;20253;-67
2022/07/29 09:16:56;;;;;;;1.00;1.00;;;27.20;99.90;;;;;;5077451;28;20330;-70
2022/07/29 09:19:26;;;;;;;1.00;1.00;;;27.40;99.90;;;;;;5083180;28;20203;-68
2022/07/29 09:21:58;;;;;;;0.90;0.90;;;27.30;99.90;;;;;;5091414;28;20219;-68
2022/07/29 09:24:27;;;;;;;1.00;0.98;;;27.20;99.90;;;;;;5078617;28;20223;-68
2022/07/29 09:26:54;;;;;;;3.00;1.13;;;27.20;99.90;;;;;;5075033;28;20209;-67
2022/07/29 09:29:23;;;;;;;1.70;1.10;;;27.40;99.90;;;;;;5074589;28;20203;-67
2022/07/29 09:31:52;;;;;;;1.88;1.13;;;27.50;99.90;;;;;;5075046;28;20231;-67
2022/07/29 09:34:23;;;;;;;1.08;1.08;;;27.50;99.90;;;;;;5074511;28;20199;-68
2022/07/29 09:36:52;;;;;;;1.20;1.10;;;27.50;99.90;;;;;;5074776;28;20187;-68
2022/07/29 09:39:30;;;;;;;1.30;1.20;;;27.50;99.90;;;;;;5073850;28;20255;-66
2022/07/29 09:41:58;;;;;;;1.08;1.05;;;27.20;99.90;;;;;;5074843;28;20231;-67
2022/07/29 09:44:26;;;;;;;0.90;0.90;;;27.20;99.90;;;;;;5074582;28;20208;-67
2022/07/29 09:46:58;;;;;;;0.95;0.93;;;27.30;99.90;;;;;;5074761;28;20298;-67
2022/07/29 09:49:26;;;;;;;1.35;1.10;;;27.60;99.90;;;;;;5073736;28;20214;-66
2022/07/29 09:52:06;;;;;;;1.10;1.10;;;27.70;99.90;;;;;;5073948;28;20223;-67
2022/07/29 09:54:37;;;;;;;1.08;1.08;;;27.80;99.90;;;;;;5062806;28;20978;-67
2022/07/29 09:57:05;;;;;;;1.00;1.00;;;27.90;99.90;;;;;;5074198;28;20207;-68
2022/07/29 09:59:32;;;;;;;1.00;1.00;;;27.90;99.90;;;;;;5074090;28;20227;-67
2022/07/29 10:01:59;;;;;;;1.65;1.10;;;28.10;99.90;;;;;;5073300;28;20227;-67
2022/07/29 10:04:38;;;;;;;1.48;1.02;;;28.10;99.90;;;;;;5073797;28;20345;-66
2022/07/29 10:07:05;;;;;;;0.90;0.90;;;28.50;99.90;;;;;;5075695;28;20665;-68
2022/07/29 10:09:34;;;;;;;1.02;1.02;;;28.50;99.90;;;;;;5075264;28;20213;-67
2022/07/29 10:12:07;;;;;;;1.40;1.30;;;28.50;99.90;;;;;;5073173;28;20235;-66
2022/07/29 10:14:35;;;;;;;1.00;1.00;;;28.20;99.90;;;;;;5073387;28;20760;-68
2022/07/29 10:17:03;;;;;;;1.52;1.10;;;28.40;99.90;;;;;;5072191;28;20298;-67
2022/07/29 10:19:31;;;;;;;1.30;1.20;;;28.50;99.90;;;;;;5073876;28;20656;-67
2022/07/29 10:21:59;;;;;;;1.20;1.10;;;28.70;99.90;;;;;;5072877;28;20257;-66
2022/07/29 10:24:28;;;;;;;1.20;1.10;;;28.60;99.90;;;;;;5073088;28;20264;-68
2022/07/29 10:26:58;;;;;;;1.00;1.00;;;28.40;99.90;;;;;;5071241;28;20222;-66
2022/07/29 10:29:25;;;;;;;1.30;1.20;;;28.30;99.90;;;;;;5073722;28;20210;-68
2022/07/29 10:32:07;;;;;;;1.48;1.10;;;28.30;99.90;;;;;;5079144;28;20254;-68
2022/07/29 10:34:50;;;;;;;1.00;1.00;;;28.30;99.90;;;;;;5075942;28;20723;-67
2022/07/29 10:37:28;;;;;;;1.00;1.00;;;28.70;99.90;;;;;;5075554;28;20202;-69
2022/07/29 10:41:26;;;;;;;1.38;1.20;;;28.90;99.90;;;;;;5077660;28;20287;-70
2022/07/29 10:43:00;;;;;;;1.25;1.15;;;29.10;99.90;;;;;;5076850;28;20231;-69
2022/07/29 10:45:28;;;;;;;1.20;1.10;;;29.20;99.90;;;;;;5076679;28;20282;-69
2022/07/29 10:48:05;;;;;;;1.00;1.00;;;29.30;99.90;;;;;;5073869;28;20294;-68
2022/07/29 10:50:54;;;;;;;1.20;1.20;;;29.70;99.90;;;;;;5074635;28;20306;-68
2022/07/29 10:53:21;;;;;;;1.48;1.10;;;29.90;99.90;;;;;;5073466;28;20716;-69
2022/07/29 10:55:50;;;;;;;1.20;1.10;;;30.20;99.90;;;;;;5074221;28;20302;-68
2022/07/29 10:58:20;;;;;;;1.35;1.25;;;30.20;99.90;;;;;;5073293;28;20231;-68
2022/07/29 11:00:48;;;;;;;1.13;1.02;;;30.40;99.90;;;;;;5073580;28;20952;-68
2022/07/29 11:03:51;;;;;;;1.02;1.02;;;30.50;99.90;;;;;;5074233;28;20310;-67
2022/07/29 11:06:20;;;;;;;1.13;1.02;;;30.80;99.90;;;;;;4972632;28;20210;-68
2022/07/29 11:09:06;;;;;;;1.90;1.08;;;30.80;99.90;;;;;;4972448;28;20739;-67
2022/07/29 11:11:34;;;;;;;0.80;0.80;;;31.00;99.90;;;;;;4971996;28;20293;-67
2022/07/29 11:14:02;;;;;;;0.95;0.90;;;30.80;99.90;;;;;;4971607;28;20211;-69
2022/07/29 11:17:03;;;;;;;1.80;1.10;;;30.60;99.90;;;;;;4972794;28;20272;-67
2022/07/29 11:19:30;;;;;;;2.72;1.20;;;30.70;99.90;;;;;;4971678;28;20223;-68
2022/07/29 11:21:58;;;;;;;1.88;1.40;;;30.50;99.90;;;;;;4972078;28;20313;-67
2022/07/29 11:24:32;;;;;;;1.10;1.10;;;30.30;99.90;;;;;;4972413;28;20588;-68
2022/07/29 11:27:13;;;;;;;1.00;1.00;;;30.10;99.90;;;;;;4977394;28;20302;-68
2022/07/29 11:29:50;;;;;;;1.50;1.10;;;30.00;99.90;;;;;;4977346;28;20269;-67
2022/07/29 11:32:19;;;;;;;1.77;1.25;;;30.00;99.90;;;;;;4974643;28;20688;-68
2022/07/29 11:34:47;;;;;;;1.02;1.02;;;29.90;99.90;;;;;;4975835;28;20308;-68
2022/07/29 11:37:32;;;;;;;1.40;1.17;;;29.80;99.90;;;;;;5026879;28;20238;-68
2022/07/29 11:40:19;;;;;;;1.00;1.00;;;29.70;99.90;;;;;;5077061;28;20271;-69
2022/07/29 11:42:52;;;;;;;1.38;1.00;;;29.60;99.90;;;;;;5073978;28;20258;-70
2022/07/29 11:45:31;;;;;;;1.17;0.95;;;29.50;99.90;;;;;;5073158;28;20195;-68
2022/07/29 11:48:00;;;;;;;1.38;0.95;;;29.50;99.90;;;;;;5073111;28;20568;-69
2022/07/29 11:50:34;;;;;;;1.65;1.00;;;29.50;99.90;;;;;;5072995;28;20723;-69
2022/07/29 11:53:02;;;;;;;4.60;1.17;;;29.50;99.90;;;;;;5073148;28;20254;-66
2022/07/29 11:55:31;;;;;;;1.42;1.05;;;29.60;99.90;;;;;;5072429;28;20226;-67
2022/07/29 11:57:59;;;;;;;1.20;1.05;;;29.50;99.90;;;;;;5072566;28;20256;-67
2022/07/29 12:00:30;;;;;;;1.17;1.10;;;29.50;99.90;;;;;;5071660;28;20221;-68
2022/07/29 12:02:59;;;;;;;1.45;1.20;;;29.50;99.90;;;;;;5072146;28;20227;-66
2022/07/29 12:05:38;;;;;;;1.38;1.20;;;29.30;99.90;;;;;;5071483;28;20207;-67
2022/07/29 12:08:10;;;;;;;0.90;0.90;;;29.20;99.90;;;;;;5071273;28;20666;-66
2022/07/29 12:10:38;;;;;;;1.20;1.10;;;29.20;99.90;;;;;;5071444;28;20712;-67
2022/07/29 12:13:05;;;;;;;1.00;1.00;;;29.20;99.90;;;;;;5072674;28;20605;-67
2022/07/29 12:15:34;;;;;;;1.42;1.10;;;29.30;99.90;;;;;;5073186;28;20202;-67
2022/07/29 12:18:14;;;;;;;1.00;1.00;;;29.30;99.90;;;;;;5072351;28;20677;-66
2022/07/29 12:20:41;;;;;;;3.22;1.10;;;29.20;99.90;;;;;;5071915;28;20270;-66
2022/07/29 12:23:11;;;;;;;1.25;1.13;;;29.20;99.90;;;;;;5072318;28;20227;-67
2022/07/29 12:25:39;;;;;;;1.10;1.10;;;29.30;99.90;;;;;;5072910;28;20210;-66
2022/07/29 12:28:08;;;;;;;1.27;1.17;;;29.30;99.90;;;;;;5083734;28;20203;-67
2022/07/29 12:30:39;;;;;;;1.10;1.00;;;29.30;99.90;;;;;;5084295;28;20267;-68
2022/07/29 12:33:22;;;;;;;1.30;1.20;;;29.20;99.90;;;;;;5077380;28;20219;-66
2022/07/29 12:35:51;;;;;;;1.00;0.80;;;29.10;99.90;;;;;;5072293;28;20211;-66
2022/07/29 12:38:18;;;;;;;0.93;0.93;;;29.10;99.90;;;;;;5073615;28;20206;-67
2022/07/29 12:40:47;;;;;;;1.20;1.17;;;29.10;99.90;;;;;;5073358;28;20204;-66
2022/07/29 12:43:15;;;;;;;1.35;1.20;;;29.20;99.90;;;;;;5072155;28;20731;-68
2022/07/29 12:45:45;;;;;;;0.90;0.90;;;29.20;99.90;;;;;;5073173;28;20230;-68
2022/07/29 12:48:12;;;;;;;1.13;1.10;;;29.30;99.90;;;;;;5074984;28;20273;-66
2022/07/29 12:50:55;;;;;;;1.10;1.10;;;29.30;99.90;;;;;;5077888;28;20266;-67
2022/07/29 12:53:22;;;;;;;1.80;1.02;;;29.30;99.90;;;;;;5077625;28;20405;-66
2022/07/29 12:55:51;;;;;;;0.90;0.90;;;29.30;99.90;;;;;;5078043;28;20294;-67
2022/07/29 12:58:32;;;;;;;1.73;1.20;;;29.40;99.90;;;;;;5077397;28;20207;-66
2022/07/29 13:01:19;;;;;;;1.00;1.00;;;29.40;99.90;;;;;;5076863;28;20289;-67